Harborton, Virginia
Current Conditions -  °F | °C
As of 7:15 AM on Sunday 23 Nov 2014 (Local Time) from KMFV Reporting Station
Clear Clear  
Wind Chill: 37°   Ceiling: Unl
Heat Index: 41°   Visibility: 10mi
Dew Point: 32°   Wind: 6mph
Humidity: 70%   Direction: 210°SSW
Pressure: 30.28"   Gusts: NA
Location:  37.66°N, 75.83°W
Report Text: KMFV 231215Z AUTO 21005KT 10SM CLR 05/00 A3028 RMK AO2
Loading
Personal Weather Stations






























Interactive Weather Map New forecast layout! Learn more

10-Day Weather Forecast

Advertisements
Track Severe Weather on mobile